createdAt,value
2018-07-15T00:02:06.052Z,5.10
2018-07-15T00:04:34.252Z,6.05
2018-07-15T00:07:02.310Z,5.08
2018-07-15T00:09:30.331Z,5.62
2018-07-15T00:11:58.384Z,5.80
2018-07-15T00:14:26.447Z,7.53
2018-07-15T00:16:54.484Z,8.88
2018-07-15T00:19:22.511Z,5.25
2018-07-15T00:21:50.549Z,4.42
2018-07-15T00:24:18.583Z,5.90
2018-07-15T00:26:46.617Z,7.97
2018-07-15T00:29:14.649Z,7.62
2018-07-15T00:31:42.692Z,6.83
2018-07-15T00:34:10.709Z,3.77
2018-07-15T00:36:38.744Z,5.35
2018-07-15T00:39:07.141Z,6.80
2018-07-15T00:41:35.216Z,6.50
2018-07-15T00:44:03.473Z,3.55
2018-07-15T00:46:31.528Z,6.42
2018-07-15T00:48:59.583Z,6.20
2018-07-15T00:51:27.624Z,5.70
2018-07-15T00:53:55.813Z,5.67
2018-07-15T00:56:23.897Z,4.67
2018-07-15T00:58:51.936Z,5.47
2018-07-15T01:01:19.968Z,7.05
2018-07-15T01:03:48.026Z,5.40
2018-07-15T01:06:16.092Z,4.55
2018-07-15T01:08:44.134Z,6.22
2018-07-15T01:11:12.169Z,5.15
2018-07-15T01:13:40.200Z,4.28
2018-07-15T01:16:08.253Z,4.58
2018-07-15T01:18:36.404Z,4.85
2018-07-15T01:21:04.469Z,5.92
2018-07-15T01:23:32.525Z,5.92
2018-07-15T01:26:00.573Z,7.10
2018-07-15T01:28:28.634Z,5.25
2018-07-15T01:30:56.664Z,6.05
2018-07-15T01:33:24.809Z,5.33
2018-07-15T01:35:52.833Z,5.10
2018-07-15T01:38:20.872Z,5.33
2018-07-15T01:40:48.912Z,6.25
2018-07-15T01:43:16.954Z,4.53
2018-07-15T01:45:44.992Z,3.62
2018-07-15T01:48:13.061Z,6.45
2018-07-15T01:50:41.086Z,8.10
2018-07-15T01:53:09.128Z,6.58
2018-07-15T01:55:45.240Z,8.15
2018-07-15T01:58:13.276Z,9.43
2018-07-15T02:00:41.342Z,6.62
2018-07-15T02:03:09.369Z,6.00
2018-07-15T02:05:37.418Z,5.97
2018-07-15T02:08:05.707Z,7.08
2018-07-15T02:10:33.752Z,6.08
2018-07-15T02:13:01.811Z,6.92
2018-07-15T02:15:29.851Z,4.53
2018-07-15T02:17:57.889Z,7.28
2018-07-15T02:20:26.104Z,7.53
2018-07-15T02:22:54.139Z,7.72
2018-07-15T02:25:22.165Z,6.33
2018-07-15T02:27:50.207Z,3.60
2018-07-15T02:30:18.232Z,3.98
2018-07-15T02:32:46.273Z,2.90
2018-07-15T02:35:14.344Z,3.98
2018-07-15T02:37:42.410Z,5.67
2018-07-15T02:40:10.428Z,4.87
2018-07-15T02:42:38.495Z,4.95
2018-07-15T02:45:06.545Z,4.90
2018-07-15T02:47:34.572Z,4.50
2018-07-15T02:50:02.623Z,5.87
2018-07-15T02:52:30.680Z,5.85
2018-07-15T02:54:58.716Z,4.90
2018-07-15T02:57:26.780Z,5.67
2018-07-15T02:59:54.864Z,5.20
2018-07-15T03:02:22.911Z,5.47
2018-07-15T03:04:50.967Z,4.67
2018-07-15T03:07:18.993Z,4.80
2018-07-15T03:09:47.033Z,4.97
2018-07-15T03:12:15.062Z,4.72
2018-07-15T03:14:43.104Z,5.15
2018-07-15T03:17:11.161Z,5.60
2018-07-15T03:19:39.184Z,6.10
2018-07-15T03:22:07.726Z,5.15
2018-07-15T03:24:35.780Z,6.22
2018-07-15T03:27:03.800Z,5.03
2018-07-15T03:29:31.833Z,5.53
2018-07-15T03:31:59.862Z,5.45
2018-07-15T03:34:27.896Z,6.87
2018-07-15T03:36:55.928Z,4.92
2018-07-15T03:39:23.983Z,5.97
2018-07-15T03:41:52.012Z,5.55
2018-07-15T03:44:20.049Z,7.67
2018-07-15T03:46:48.131Z,4.50
2018-07-15T03:49:16.176Z,5.25
2018-07-15T03:51:44.218Z,4.33
2018-07-15T03:54:12.261Z,6.87
2018-07-15T03:56:40.307Z,4.03
2018-07-15T03:59:08.362Z,3.85
2018-07-15T04:01:36.396Z,6.17
2018-07-15T04:04:04.456Z,5.55
2018-07-15T04:06:32.501Z,5.80
2018-07-15T04:09:00.622Z,6.90
2018-07-15T04:11:28.588Z,4.25
2018-07-15T04:13:56.648Z,6.15
2018-07-15T04:16:24.673Z,5.85
2018-07-15T04:18:52.712Z,5.78
2018-07-15T04:21:20.748Z,6.78
2018-07-15T04:23:48.789Z,7.10
2018-07-15T04:26:16.831Z,5.17
2018-07-15T04:28:44.864Z,6.22
2018-07-15T04:31:12.891Z,5.17
2018-07-15T04:33:40.959Z,4.35
2018-07-15T04:36:08.997Z,5.20
2018-07-15T04:38:37.028Z,5.40
2018-07-15T04:41:05.056Z,7.50
2018-07-15T04:43:33.112Z,4.40
2018-07-15T04:46:01.136Z,8.40
2018-07-15T04:48:29.164Z,4.83
2018-07-15T04:50:57.208Z,5.70
2018-07-15T04:53:25.227Z,3.72
2018-07-15T04:55:53.276Z,4.87
2018-07-15T04:58:21.336Z,4.65
2018-07-15T05:00:49.388Z,4.05
2018-07-15T05:03:17.472Z,5.33
2018-07-15T05:05:45.519Z,7.92
2018-07-15T05:08:13.568Z,4.35
2018-07-15T05:10:41.600Z,5.15
2018-07-15T05:13:09.628Z,4.15
2018-07-15T05:15:37.663Z,7.33
2018-07-15T05:18:05.692Z,5.92
2018-07-15T05:20:33.733Z,5.33
2018-07-15T05:23:01.757Z,5.47
2018-07-15T05:25:29.824Z,11.05
2018-07-15T05:27:57.856Z,7.05
2018-07-15T05:30:25.916Z,7.95
2018-07-15T05:32:53.956Z,5.37
2018-07-15T05:35:21.994Z,6.08
2018-07-15T05:37:50.015Z,6.70
2018-07-15T05:40:18.052Z,8.43
2018-07-15T05:42:46.099Z,7.20
2018-07-15T05:45:14.152Z,9.90
2018-07-15T05:47:42.241Z,6.03
2018-07-15T05:50:10.281Z,11.20
2018-07-15T05:52:38.312Z,10.35
2018-07-15T05:55:06.392Z,9.23
2018-07-15T05:57:34.443Z,9.30
2018-07-15T06:00:02.492Z,8.18
2018-07-15T06:02:30.512Z,8.65
2018-07-15T06:04:58.552Z,8.73
2018-07-15T06:07:26.583Z,9.28
2018-07-15T06:09:54.632Z,9.68
2018-07-15T06:12:22.664Z,8.55
2018-07-15T06:14:50.701Z,8.08
2018-07-15T06:17:18.752Z,6.50
2018-07-15T06:19:46.784Z,8.50
2018-07-15T06:22:14.923Z,6.05
2018-07-15T06:24:42.964Z,7.58
2018-07-15T06:27:11.008Z,9.05
2018-07-15T06:29:39.086Z,7.83
2018-07-15T06:32:07.154Z,6.78
2018-07-15T06:34:35.181Z,4.45
2018-07-15T06:37:03.325Z,5.92
2018-07-15T06:39:31.347Z,8.03
2018-07-15T06:41:59.388Z,6.10
2018-07-15T06:44:27.421Z,10.20
2018-07-15T06:46:55.464Z,8.30
2018-07-15T06:49:23.550Z,6.22
2018-07-15T06:51:51.532Z,6.67
2018-07-15T06:54:19.576Z,6.92
2018-07-15T06:56:47.608Z,8.15
2018-07-15T06:59:15.648Z,8.70
2018-07-15T07:01:43.687Z,4.83
2018-07-15T07:04:11.739Z,8.33
2018-07-15T07:06:39.772Z,8.88
2018-07-15T07:09:08.245Z,9.60
2018-07-15T07:11:37.220Z,7.08
2018-07-15T07:14:05.495Z,7.70
2018-07-15T07:16:33.712Z,9.05
2018-07-15T07:19:01.761Z,6.85
2018-07-15T07:21:29.832Z,13.75
2018-07-15T07:23:57.872Z,12.85
2018-07-15T07:26:25.957Z,7.03
2018-07-15T07:28:54.055Z,8.78
2018-07-15T07:31:22.098Z,8.88
2018-07-15T07:33:50.137Z,10.78
2018-07-15T07:36:18.228Z,14.60
2018-07-15T07:38:46.360Z,13.93
2018-07-15T07:41:14.426Z,11.20
2018-07-15T07:43:42.420Z,15.08
2018-07-15T07:46:10.493Z,13.05
2018-07-15T07:48:38.536Z,15.65
2018-07-15T07:51:06.587Z,16.15
2018-07-15T07:53:34.611Z,13.62
2018-07-15T07:56:02.699Z,11.33
2018-07-15T07:58:30.736Z,10.90
2018-07-15T08:00:58.804Z,16.93
2018-07-15T08:03:26.844Z,16.73
2018-07-15T08:05:54.920Z,20.45
2018-07-15T08:08:22.952Z,14.70
2018-07-15T08:10:51.000Z,17.85
2018-07-15T08:13:19.056Z,20.43
2018-07-15T08:15:47.101Z,29.25
2018-07-15T08:18:15.148Z,20.62
2018-07-15T08:20:43.231Z,38.20
2018-07-15T08:23:11.320Z,35.75
2018-07-15T08:25:39.352Z,25.02
2018-07-15T08:28:07.502Z,25.75
2018-07-15T08:30:46.811Z,26.23
2018-07-15T08:33:14.877Z,24.18
2018-07-15T08:35:42.955Z,36.10
2018-07-15T08:38:11.040Z,32.13
2018-07-15T08:40:39.182Z,29.25
2018-07-15T08:43:07.231Z,26.12
2018-07-15T08:45:35.269Z,20.85
2018-07-15T08:48:03.347Z,38.67
2018-07-15T08:50:31.395Z,29.75
2018-07-15T08:52:59.472Z,26.33
2018-07-15T08:55:27.507Z,28.20
2018-07-15T08:57:55.573Z,29.02
2018-07-15T09:00:23.632Z,27.90
2018-07-15T09:02:51.696Z,25.37
2018-07-15T09:05:19.740Z,25.00
2018-07-15T09:07:47.796Z,37.33
2018-07-15T09:10:15.851Z,37.35
2018-07-15T09:12:43.946Z,33.00
2018-07-15T09:15:11.933Z,34.88
2018-07-15T09:17:39.991Z,36.28
2018-07-15T09:20:08.041Z,24.07
2018-07-15T09:22:36.088Z,27.60
2018-07-15T09:25:04.151Z,30.97
2018-07-15T09:27:32.208Z,39.05
2018-07-15T09:30:00.271Z,30.92
2018-07-15T09:32:28.319Z,32.30
2018-07-15T09:34:56.376Z,27.67
2018-07-15T09:37:24.416Z,34.27
2018-07-15T09:39:52.447Z,38.67
2018-07-15T09:42:20.492Z,29.95
2018-07-15T09:44:48.548Z,35.90
2018-07-15T09:47:16.639Z,32.63
2018-07-15T09:49:44.700Z,39.53
2018-07-15T09:52:12.750Z,32.98
2018-07-15T09:54:40.819Z,31.15
2018-07-15T09:57:08.878Z,44.00
2018-07-15T09:59:36.916Z,44.80
2018-07-15T10:02:04.986Z,44.85
2018-07-15T10:04:33.050Z,45.23
2018-07-15T10:07:01.093Z,65.57
2018-07-15T10:09:29.144Z,53.63
2018-07-15T10:11:57.203Z,67.62
2018-07-15T10:14:25.240Z,42.25
2018-07-15T10:16:53.303Z,43.70
2018-07-15T10:19:21.374Z,61.50
2018-07-15T10:21:49.454Z,50.80
2018-07-15T10:24:17.515Z,67.27
2018-07-15T10:26:45.639Z,53.58
2018-07-15T10:29:13.684Z,66.80
2018-07-15T10:31:41.724Z,60.95
2018-07-15T10:34:09.828Z,55.95
2018-07-15T10:36:37.879Z,64.22
2018-07-15T10:39:06.216Z,47.10
2018-07-15T10:41:34.184Z,48.42
2018-07-15T10:44:02.262Z,36.88
2018-07-15T10:46:30.288Z,58.75
2018-07-15T10:48:58.367Z,43.95
2018-07-15T10:51:26.436Z,58.55
2018-07-15T10:53:54.483Z,45.95
2018-07-15T10:56:22.525Z,80.40
2018-07-15T10:58:50.617Z,55.23
2018-07-15T11:01:18.663Z,72.12
2018-07-15T11:03:46.735Z,55.70
2018-07-15T11:06:14.828Z,58.90
2018-07-15T11:08:42.815Z,55.10
2018-07-15T11:11:10.864Z,72.27
2018-07-15T11:13:38.935Z,53.50
2018-07-15T11:16:06.992Z,54.83
2018-07-15T11:18:35.053Z,57.90
2018-07-15T11:21:03.095Z,58.38
2018-07-15T11:23:31.164Z,74.20
2018-07-15T11:25:59.201Z,46.42
2018-07-15T11:28:27.245Z,57.95
2018-07-15T11:30:55.399Z,52.43
2018-07-15T11:33:23.348Z,56.02
2018-07-15T11:35:51.388Z,83.25
2018-07-15T11:38:19.453Z,72.20
2018-07-15T11:40:47.503Z,66.47
2018-07-15T11:43:15.565Z,78.20
2018-07-15T11:45:43.637Z,50.67
2018-07-15T11:48:11.727Z,70.28
2018-07-15T11:50:39.724Z,76.28
2018-07-15T11:53:07.787Z,70.70
2018-07-15T11:55:35.855Z,62.13
2018-07-15T11:58:03.885Z,56.55
2018-07-15T12:00:31.936Z,53.68
2018-07-15T12:03:00.005Z,90.15
2018-07-15T12:05:28.090Z,78.30
2018-07-15T12:07:56.125Z,54.33
2018-07-15T12:10:24.177Z,81.57
2018-07-15T12:12:52.228Z,59.38
2018-07-15T12:15:20.275Z,66.28
2018-07-15T12:17:48.334Z,46.88
2018-07-15T12:20:16.403Z,46.28
2018-07-15T12:22:44.448Z,58.38
2018-07-15T12:25:12.491Z,56.58
2018-07-15T12:27:40.525Z,63.85
2018-07-15T12:30:08.595Z,71.77
2018-07-15T12:32:36.656Z,88.05
2018-07-15T12:35:04.775Z,80.55
2018-07-15T12:37:32.805Z,93.17
2018-07-15T12:40:00.866Z,56.92
2018-07-15T12:42:28.908Z,67.42
2018-07-15T12:44:56.964Z,115.62
2018-07-15T12:47:25.013Z,64.05
2018-07-15T12:49:53.081Z,71.45
2018-07-15T12:52:21.133Z,78.67
2018-07-15T12:54:49.172Z,74.25
2018-07-15T12:57:17.240Z,71.42
2018-07-15T12:59:45.312Z,55.08
2018-07-15T13:02:13.372Z,49.15
2018-07-15T13:04:41.440Z,66.17
2018-07-15T13:07:09.516Z,55.33
2018-07-15T13:09:37.576Z,62.73
2018-07-15T13:12:05.637Z,53.23
2018-07-15T13:14:33.739Z,47.13
2018-07-15T13:17:01.777Z,60.80
2018-07-15T13:19:29.823Z,78.35
2018-07-15T13:21:57.876Z,61.15
2018-07-15T13:24:25.956Z,69.15
2018-07-15T13:26:54.026Z,72.78
2018-07-15T13:29:22.071Z,58.92
2018-07-15T13:31:50.112Z,52.38
2018-07-15T13:34:18.180Z,64.15
2018-07-15T13:36:46.267Z,67.22
2018-07-15T13:39:14.264Z,50.30
2018-07-15T13:41:42.375Z,55.45
2018-07-15T13:44:10.360Z,40.12
2018-07-15T13:46:38.452Z,81.92
2018-07-15T13:49:06.721Z,68.28
2018-07-15T13:51:34.777Z,59.60
2018-07-15T13:54:02.820Z,68.57
2018-07-15T13:56:30.881Z,71.02
2018-07-15T13:58:58.940Z,71.80
2018-07-15T14:01:26.992Z,57.83
2018-07-15T14:03:55.044Z,82.30
2018-07-15T14:06:23.104Z,69.40
2018-07-15T14:08:51.499Z,61.97
2018-07-15T14:11:19.541Z,77.37
2018-07-15T14:13:47.584Z,68.07
2018-07-15T14:16:15.645Z,105.63
2018-07-15T14:18:43.727Z,110.23
2018-07-15T14:21:11.784Z,108.07
2018-07-15T14:23:39.834Z,97.40
2018-07-15T14:26:07.888Z,84.87
2018-07-15T14:28:35.944Z,114.80
2018-07-15T14:31:04.047Z,93.10
2018-07-15T14:33:32.120Z,66.70
2018-07-15T14:36:00.165Z,72.50
2018-07-15T14:38:28.226Z,105.90
2018-07-15T14:40:56.276Z,74.10
2018-07-15T14:43:24.334Z,91.77
2018-07-15T14:45:52.371Z,74.83
2018-07-15T14:48:20.464Z,94.07
2018-07-15T14:50:48.559Z,65.37
2018-07-15T14:53:16.592Z,84.07
2018-07-15T14:55:44.677Z,110.13
2018-07-15T14:58:12.717Z,93.67
2018-07-15T15:00:40.781Z,130.47
2018-07-15T15:03:08.888Z,102.93
2018-07-15T15:05:36.937Z,88.87
2018-07-15T15:08:05.052Z,100.27
2018-07-15T15:10:33.335Z,86.73
2018-07-15T15:13:02.139Z,90.43
2018-07-15T15:15:30.192Z,92.57
2018-07-15T15:17:58.248Z,112.08
2018-07-15T15:20:26.340Z,91.17
2018-07-15T15:22:54.390Z,93.52
2018-07-15T15:25:22.485Z,92.42
2018-07-15T15:27:50.532Z,99.85
2018-07-15T15:30:18.578Z,69.05
2018-07-15T15:32:46.656Z,73.72
2018-07-15T15:35:14.722Z,81.57
2018-07-15T15:37:42.796Z,74.62
2018-07-15T15:40:10.931Z,76.15
2018-07-15T15:42:38.976Z,70.15
2018-07-15T15:45:07.305Z,68.83
2018-07-15T15:47:38.284Z,82.25
2018-07-15T15:50:12.820Z,63.60
2018-07-15T15:52:40.892Z,62.75
2018-07-15T15:55:08.935Z,59.35
2018-07-15T15:57:36.980Z,67.90
2018-07-15T16:00:05.331Z,42.90
2018-07-15T16:02:33.364Z,53.83
2018-07-15T16:05:01.424Z,62.67
2018-07-15T16:07:29.475Z,63.45
2018-07-15T16:09:57.524Z,51.40
2018-07-15T16:12:25.576Z,58.40
2018-07-15T16:14:53.632Z,64.10
2018-07-15T16:17:21.687Z,71.70
2018-07-15T16:19:49.741Z,52.23
2018-07-15T16:22:17.792Z,57.88
2018-07-15T16:24:45.832Z,49.48
2018-07-15T16:27:13.928Z,63.48
2018-07-15T16:29:41.979Z,65.45
2018-07-15T16:32:10.021Z,60.55
2018-07-15T16:34:38.075Z,84.65
2018-07-15T16:37:06.114Z,65.72
2018-07-15T16:39:34.181Z,57.35
2018-07-15T16:42:02.268Z,57.95
2018-07-15T16:44:30.323Z,74.53
2018-07-15T16:46:58.383Z,72.42
2018-07-15T16:49:26.424Z,68.57
2018-07-15T16:51:54.471Z,72.22
2018-07-15T16:54:22.552Z,50.00
2018-07-15T16:56:50.881Z,60.88
2018-07-15T16:59:18.963Z,66.42
2018-07-15T17:01:47.011Z,75.65
2018-07-15T17:04:15.054Z,45.88
2018-07-15T17:06:43.108Z,42.27
2018-07-15T17:09:11.156Z,64.65
2018-07-15T17:11:39.191Z,58.92
2018-07-15T17:14:07.336Z,50.08
2018-07-15T17:16:35.321Z,62.00
2018-07-15T17:19:03.371Z,56.88
2018-07-15T17:21:31.412Z,67.72
2018-07-15T17:23:59.463Z,47.08
2018-07-15T17:26:27.519Z,38.25
2018-07-15T17:28:55.560Z,36.85
2018-07-15T17:31:23.628Z,51.10
2018-07-15T17:33:51.684Z,36.30
2018-07-15T17:36:19.715Z,38.33
2018-07-15T17:38:47.757Z,51.15
2018-07-15T17:41:15.788Z,46.13
2018-07-15T17:43:44.243Z,39.13
2018-07-15T17:46:12.339Z,45.30
2018-07-15T17:48:40.416Z,33.23
2018-07-15T17:51:08.479Z,48.80
2018-07-15T17:53:37.024Z,34.80
2018-07-15T17:56:05.172Z,33.25
2018-07-15T17:58:33.261Z,56.53
2018-07-15T18:01:01.301Z,40.52
2018-07-15T18:03:29.376Z,41.08
2018-07-15T18:05:57.444Z,34.78
2018-07-15T18:08:25.477Z,35.03
2018-07-15T18:10:53.513Z,34.53
2018-07-15T18:13:21.579Z,37.25
2018-07-15T18:15:49.612Z,36.83
2018-07-15T18:18:17.672Z,32.25
2018-07-15T18:20:45.796Z,42.80
2018-07-15T18:23:13.818Z,49.53
2018-07-15T18:25:41.849Z,54.53
2018-07-15T18:28:09.920Z,47.90
2018-07-15T18:30:37.957Z,45.58
2018-07-15T18:33:06.056Z,47.48
2018-07-15T18:35:34.108Z,51.25
2018-07-15T18:38:02.188Z,34.73
2018-07-15T18:40:30.240Z,46.92
2018-07-15T18:42:58.316Z,33.70
2018-07-15T18:45:26.346Z,38.58
2018-07-15T18:47:54.480Z,31.62
2018-07-15T18:50:22.528Z,29.80
2018-07-15T18:52:50.593Z,34.45
2018-07-15T18:55:18.643Z,36.40
2018-07-15T18:57:46.711Z,35.95
2018-07-15T19:00:14.760Z,29.77
2018-07-15T19:02:42.809Z,39.98
2018-07-15T19:05:10.850Z,53.70
2018-07-15T19:07:38.928Z,46.05
2018-07-15T19:10:06.961Z,33.00
2018-07-15T19:12:35.023Z,33.05
2018-07-15T19:15:03.115Z,32.83
2018-07-15T19:17:31.160Z,27.50
2018-07-15T19:19:59.205Z,26.07
2018-07-15T19:22:27.244Z,28.17
2018-07-15T19:24:55.600Z,36.95
2018-07-15T19:27:23.640Z,38.35
2018-07-15T19:29:51.704Z,34.70
2018-07-15T19:32:19.736Z,28.70
2018-07-15T19:34:47.781Z,28.95
2018-07-15T19:37:15.820Z,40.43
2018-07-15T19:39:43.864Z,22.62
2018-07-15T19:42:11.904Z,28.32
2018-07-15T19:44:39.962Z,32.63
2018-07-15T19:47:07.996Z,35.73
2018-07-15T19:49:36.404Z,29.85
2018-07-15T19:52:04.469Z,22.40
2018-07-15T19:54:32.580Z,27.15
2018-07-15T19:57:00.671Z,23.22
2018-07-15T19:59:28.732Z,30.12
2018-07-15T20:01:56.781Z,24.52
2018-07-15T20:04:24.829Z,44.00
2018-07-15T20:06:52.915Z,24.70
2018-07-15T20:09:20.970Z,33.63
2018-07-15T20:11:49.015Z,22.32
2018-07-15T20:14:17.077Z,33.20
2018-07-15T20:16:45.127Z,25.68
2018-07-15T20:19:13.226Z,35.45
2018-07-15T20:21:41.357Z,17.62
2018-07-15T20:24:09.364Z,27.10
2018-07-15T20:26:37.423Z,30.95
2018-07-15T20:29:05.484Z,37.50
2018-07-15T20:31:33.536Z,34.78
2018-07-15T20:34:01.621Z,32.73
2018-07-15T20:36:29.680Z,24.60
2018-07-15T20:38:57.744Z,23.25
2018-07-15T20:41:25.792Z,31.57
2018-07-15T20:43:53.855Z,23.20
2018-07-15T20:46:21.921Z,25.82
2018-07-15T20:48:49.964Z,21.15
2018-07-15T20:51:18.028Z,24.52
2018-07-15T20:53:46.081Z,23.67
2018-07-15T20:56:14.159Z,26.77
2018-07-15T20:58:42.195Z,27.35
2018-07-15T21:01:10.249Z,23.05
2018-07-15T21:03:38.296Z,25.40
2018-07-15T21:06:07.140Z,26.20
2018-07-15T21:08:35.358Z,21.00
2018-07-15T21:11:03.414Z,25.08
2018-07-15T21:13:31.453Z,26.57
2018-07-15T21:15:59.492Z,22.25
2018-07-15T21:18:27.536Z,26.45
2018-07-15T21:20:55.589Z,34.58
2018-07-15T21:23:23.672Z,20.75
2018-07-15T21:25:51.717Z,18.92
2018-07-15T21:28:19.783Z,21.05
2018-07-15T21:30:47.831Z,16.87
2018-07-15T21:33:15.881Z,26.37
2018-07-15T21:35:43.960Z,26.42
2018-07-15T21:38:12.081Z,32.58
2018-07-15T21:40:40.188Z,27.98
2018-07-15T21:43:08.242Z,23.40
2018-07-15T21:45:36.326Z,28.98
2018-07-15T21:48:04.445Z,22.62
2018-07-15T21:50:32.516Z,28.40
2018-07-15T21:53:00.564Z,31.68
2018-07-15T21:55:28.755Z,26.75
2018-07-15T21:57:56.800Z,19.67
2018-07-15T22:00:24.869Z,24.23
2018-07-15T22:02:53.030Z,21.33
2018-07-15T22:05:21.080Z,17.45
2018-07-15T22:08:00.688Z,15.55
2018-07-15T22:10:36.718Z,18.60
2018-07-15T22:13:04.748Z,14.28
2018-07-15T22:15:32.800Z,19.57
2018-07-15T22:18:00.848Z,16.85
2018-07-15T22:20:28.892Z,24.15
2018-07-15T22:22:56.993Z,19.60
2018-07-15T22:25:25.092Z,23.40
2018-07-15T22:27:53.147Z,17.67
2018-07-15T22:30:21.219Z,15.68
2018-07-15T22:32:49.243Z,22.73
2018-07-15T22:35:17.296Z,18.00
2018-07-15T22:37:45.343Z,16.23
2018-07-15T22:40:13.419Z,14.78
2018-07-15T22:42:41.456Z,17.73
2018-07-15T22:45:09.528Z,15.90
2018-07-15T22:47:37.609Z,15.15
2018-07-15T22:50:05.648Z,16.00
2018-07-15T22:52:33.700Z,12.23
2018-07-15T22:55:01.868Z,16.23
2018-07-15T22:57:29.905Z,13.68
2018-07-15T22:59:57.944Z,9.30
2018-07-15T23:02:25.991Z,13.80
2018-07-15T23:06:03.070Z,18.77
2018-07-15T23:08:32.212Z,15.40
2018-07-15T23:11:00.272Z,16.65
2018-07-15T23:13:28.344Z,11.63
2018-07-15T23:15:56.392Z,8.43
2018-07-15T23:18:24.450Z,9.95
2018-07-15T23:20:52.673Z,10.08
2018-07-15T23:23:20.742Z,12.88
2018-07-15T23:25:48.812Z,12.95
2018-07-15T23:28:17.604Z,9.78
2018-07-15T23:30:46.083Z,10.68
2018-07-15T23:33:14.200Z,10.50
2018-07-15T23:35:42.233Z,13.28
2018-07-15T23:38:10.263Z,12.63
2018-07-15T23:40:38.300Z,11.75
2018-07-15T23:43:06.339Z,9.83
2018-07-15T23:45:35.209Z,10.43
2018-07-15T23:48:03.250Z,8.98
2018-07-15T23:50:31.283Z,11.97
2018-07-15T23:52:59.355Z,11.70
2018-07-15T23:55:27.397Z,9.85
2018-07-15T23:57:55.564Z,10.23
